Time;durP1;ratioP1;P1;durP2;ratioP2;P2;SDS_P1;SDS_P2;PMS_P1;PMS_P2;Temp;Humidity;BMP_temperature;BMP_pressure;BME280_temperature;BME280_humidity;BME280_pressure;Samples;Min_cycle;Max_cycle;Signal;HPM_P1;HPM_P2
2022/08/04 06:09:47;;;;;;;46.85;8.90;;;;;;;24.19;48.77;100103.63;6136657;23;20045;-89
2022/08/04 06:12:44;;;;;;;59.58;9.02;;;;;;;24.55;49.45;100153.06;6056077;23;20073;-91
2022/08/04 06:15:13;;;;;;;91.55;16.05;;;;;;;24.63;47.59;100150.31;6127279;23;20021;-90
2022/08/04 06:18:08;;;;;;;95.90;13.25;;;;;;;24.21;47.89;100081.72;6077000;23;20364;-90
2022/08/04 06:20:50;;;;;;;129.18;22.33;;;;;;;24.70;47.77;100150.38;6054010;23;20030;-91
2022/08/04 06:23:19;;;;;;;107.25;16.10;;;;;;;24.78;47.74;100146.44;6053121;23;20333;-89
2022/08/04 06:25:56;;;;;;;65.47;12.20;;;;;;;24.60;47.05;100110.78;6053086;23;20049;-89
2022/08/04 06:28:23;;;;;;;53.65;9.85;;;;;;;24.74;46.67;100117.66;6101397;23;20114;-92
2022/08/04 06:31:31;;;;;;;40.00;7.70;;;;;;;25.02;47.77;100148.59;6106852;23;20032;-88
2022/08/04 06:34:02;;;;;;;34.58;9.30;;;;;;;25.04;47.08;100143.41;6077953;23;20400;-89
2022/08/04 06:36:31;;;;;;;61.45;10.30;;;;;;;25.16;47.06;100141.50;6077458;23;20440;-90
2022/08/04 06:39:01;;;;;;;82.38;11.95;;;;;;;25.24;47.02;100143.94;6041420;23;20030;-91
2022/08/04 06:41:29;;;;;;;87.57;13.90;;;;;;;25.22;45.42;100131.53;5994642;23;20019;-90
2022/08/04 06:44:08;;;;;;;95.30;16.05;;;;;;;25.25;45.94;100119.56;6038078;23;20023;-88
2022/08/04 06:46:40;;;;;;;147.23;20.67;;;;;;;25.20;46.10;100114.31;5992444;23;20117;-91
2022/08/04 06:49:07;;;;;;;66.72;9.93;;;;;;;25.38;45.68;100125.63;5991628;23;20078;-90
2022/08/04 06:51:35;;;;;;;;;;;;;;;25.62;45.66;100154.91;5992017;23;20027;-91
2022/08/04 06:54:01;;;;;;;55.35;10.02;;;;;;;25.69;45.42;100163.31;6015001;23;19917;-90
2022/08/04 06:56:30;;;;;;;67.93;12.70;;;;;;;25.77;45.82;100150.97;5968467;23;20027;-91
2022/08/04 06:58:59;;;;;;;31.17;7.80;;;;;;;25.79;44.21;100154.16;5989223;23;20090;-86
2022/08/04 07:01:26;;;;;;;67.45;8.82;;;;;;;25.83;43.36;100143.81;6013070;23;20027;-89
2022/08/04 07:03:53;;;;;;;34.17;7.60;;;;;;;25.78;43.21;100130.94;5988381;23;20353;-87
2022/08/04 07:06:24;;;;;;;46.92;7.93;;;;;;;26.00;42.98;100150.63;6011768;23;20023;-91
2022/08/04 07:08:55;;;;;;;37.55;6.78;;;;;;;26.02;43.92;100151.03;6017294;23;20074;-90
2022/08/04 07:11:22;;;;;;;35.50;7.03;;;;;;;25.88;44.51;100117.38;6064513;23;20015;-92
2022/08/04 07:13:50;;;;;;;75.25;8.50;;;;;;;25.97;42.51;100129.03;6066284;23;20018;-89
2022/08/04 07:16:19;;;;;;;32.25;5.75;;;;;;;26.16;43.22;100139.84;6097010;23;20018;-90
2022/08/04 07:18:54;;;;;;;15.52;6.30;;;;;;;25.90;41.45;100098.19;6130388;23;20083;-90
2022/08/04 07:21:45;;;;;;;41.08;7.00;;;;;;;26.31;42.49;100139.84;6157797;23;20021;-89
2022/08/04 07:24:14;;;;;;;26.65;6.50;;;;;;;26.32;40.48;100128.22;6157352;23;20052;-90
2022/08/04 07:26:40;;;;;;;39.35;7.32;;;;;;;26.38;41.24;100135.03;6081932;23;20024;-90
2022/08/04 07:29:07;;;;;;;25.73;6.32;;;;;;;26.39;39.56;100133.03;6081853;23;20017;-90
2022/08/04 07:31:34;;;;;;;28.75;5.93;;;;;;;26.34;40.70;100120.22;6105894;23;20053;-91
2022/08/04 07:34:02;;;;;;;44.35;6.18;;;;;;;26.41;40.40;100116.63;6113525;23;20045;-90
2022/08/04 07:36:51;;;;;;;20.38;5.88;;;;;;;26.62;40.40;100118.63;6115032;23;20013;-91
2022/08/04 07:39:27;;;;;;;31.70;5.50;;;;;;;26.51;38.25;100099.03;6091761;23;20093;-92
2022/08/04 07:42:39;;;;;;;116.50;18.87;;;;;;;26.71;37.46;100128.22;6073977;23;20025;-91
2022/08/04 07:45:08;;;;;;;101.57;12.93;;;;;;;26.17;39.09;100045.38;6022429;23;20070;-91
2022/08/04 07:50:21;;;;;;;26.77;6.90;;;;;;;26.43;40.77;100075.78;6024522;23;20128;-93
2022/08/04 07:52:47;;;;;;;74.43;8.73;;;;;;;26.62;39.74;100091.41;6000928;23;20023;-93
2022/08/04 07:55:15;;;;;;;63.33;8.27;;;;;;;26.42;40.48;100060.16;6025938;23;20023;-91
2022/08/04 07:57:42;;;;;;;24.63;6.07;;;;;;;26.93;39.96;100122.59;6001881;23;20116;-93
2022/08/04 08:00:13;;;;;;;68.75;10.80;;;;;;;26.90;38.63;100112.97;5997820;23;20571;-92
2022/08/04 08:03:15;;;;;;;60.10;8.60;;;;;;;27.09;38.96;100120.16;6000269;23;20491;-91
2022/08/04 08:05:42;;;;;;;38.67;11.30;;;;;;;27.08;40.39;100114.91;6003444;23;20101;-90
2022/08/04 08:08:09;;;;;;;30.73;8.52;;;;;;;27.10;41.71;100115.31;6002815;23;20023;-91
2022/08/04 08:10:44;;;;;;;19.17;6.40;;;;;;;27.10;40.52;100101.28;6070612;23;20029;-92
2022/08/04 08:13:15;;;;;;;44.05;8.38;;;;;;;26.96;39.88;100076.09;6109791;23;20387;-92
2022/08/04 08:15:49;;;;;;;89.63;10.07;;;;;;;27.02;39.82;100074.44;6086636;23;20351;-91
2022/08/04 08:18:52;;;;;;;94.75;12.25;;;;;;;27.23;40.47;100096.88;6087922;23;20014;-92
2022/08/04 08:21:21;;;;;;;71.20;11.20;;;;;;;26.91;41.13;100038.00;6102472;23;20104;-93
2022/08/04 08:23:49;;;;;;;77.50;13.68;;;;;;;27.14;40.98;100074.84;6087359;23;20017;-94
2022/08/04 08:26:16;;;;;;;33.10;7.13;;;;;;;27.55;41.20;100129.59;6089723;23;20014;-93
2022/08/04 08:28:47;;;;;;;18.50;6.18;;;;;;;27.37;41.13;100090.38;6085469;23;20022;-91
2022/08/04 08:31:20;;;;;;;22.45;6.95;;;;;;;27.30;39.95;100079.97;6085568;23;20028;-93
2022/08/04 08:37:55;;;;;;;29.77;7.72;;;;;;;27.61;38.73;100130.78;6013817;23;20175;-92
2022/08/04 08:41:57;;;;;;;62.35;10.40;;;;;;;27.61;39.39;100125.16;6011887;23;20051;-92
2022/08/04 08:44:42;;;;;;;52.75;8.52;;;;;;;27.34;38.40;100108.84;5965397;23;20498;-93
2022/08/04 08:47:39;;;;;;;18.58;7.07;;;;;;;27.39;41.10;100122.47;5966070;23;20023;-91
2022/08/04 08:50:45;;;;;;;9.90;6.30;;;;;;;27.44;40.12;100124.03;5944355;23;20051;-93
2022/08/04 08:53:42;;;;;;;10.25;6.18;;;;;;;27.60;40.41;100120.75;5856015;24;20083;-91
2022/08/04 08:56:39;;;;;;;19.75;6.18;;;;;;;27.55;40.95;100113.56;5965827;23;20019;-92
2022/08/04 08:59:33;;;;;;;24.00;6.88;;;;;;;27.52;39.62;100096.75;5966213;23;20019;-91
2022/08/04 09:02:36;;;;;;;30.67;7.43;;;;;;;27.61;39.08;100122.34;5965944;23;20140;-91
2022/08/04 09:05:47;;;;;;;17.02;7.20;;;;;;;27.51;39.57;100118.38;5943874;23;20517;-92
2022/08/04 09:08:19;;;;;;;27.35;7.72;;;;;;;27.60;40.47;100124.34;5943562;23;20023;-91
2022/08/04 09:10:52;;;;;;;22.92;7.32;;;;;;;27.47;40.64;100091.53;5980472;23;20034;-94
2022/08/04 09:13:29;;;;;;;154.63;18.17;;;;;;;27.34;40.54;100057.50;6059821;23;20021;-91
2022/08/04 09:16:36;;;;;;;34.97;8.98;;;;;;;27.79;40.13;100123.09;6124243;23;20013;-93
2022/08/04 09:19:20;;;;;;;59.83;9.90;;;;;;;27.40;40.66;100079.13;6099338;23;20026;-92
2022/08/04 09:31:05;;;;;;;26.65;8.82;;;;;;;27.03;41.29;100060.03;6079958;23;20025;-93
2022/08/04 09:34:12;;;;;;;24.20;9.30;;;;;;;27.68;42.27;100119.50;6057536;23;20364;-91
2022/08/04 09:37:20;;;;;;;22.45;7.80;;;;;;;27.59;42.22;100065.78;6078569;23;20025;-94
2022/08/04 09:43:06;;;;;;;34.25;9.43;;;;;;;27.96;40.93;100106.53;6082447;23;20029;-93
2022/08/04 09:46:27;;;;;;;34.58;9.30;;;;;;;28.05;41.47;100113.28;6081474;23;20113;-94
2022/08/04 09:55:35;;;;;;;37.40;10.40;;;;;;;28.23;40.41;100109.53;6073230;23;20018;-93
2022/08/04 09:58:39;;;;;;;23.45;9.25;;;;;;;28.26;39.77;100114.31;6050545;23;20254;-91
2022/08/04 10:01:15;;;;;;;69.72;12.82;;;;;;;27.76;40.05;100031.19;6049865;23;20131;-91
2022/08/04 10:04:16;;;;;;;54.28;11.35;;;;;;;28.30;39.08;100101.81;6065588;23;20022;-93
2022/08/04 10:07:19;;;;;;;32.80;10.50;;;;;;;28.42;38.65;100099.75;6050367;23;20449;-91
2022/08/04 10:10:10;;;;;;;53.40;10.90;;;;;;;28.10;39.17;100058.63;6077794;23;20026;-95
2022/08/04 10:12:41;;;;;;;40.20;10.13;;;;;;;28.49;38.94;100106.09;6076038;23;20027;-95
2022/08/04 10:15:32;;;;;;;30.17;9.63;;;;;;;28.17;39.13;100041.69;6077192;23;20117;-95
2022/08/04 10:18:40;;;;;;;50.08;11.57;;;;;;;28.67;38.51;100108.75;6075457;23;20018;-91
2022/08/04 10:21:34;;;;;;;19.75;9.18;;;;;;;28.59;39.49;100075.50;6029528;23;20022;-95
2022/08/04 10:24:28;;;;;;;19.85;9.35;;;;;;;28.89;40.09;100106.50;6100353;23;20018;-94
2022/08/04 10:27:20;;;;;;;17.15;10.20;;;;;;;28.99;39.51;100104.78;6025882;23;20475;-95
2022/08/04 10:29:47;;;;;;;45.22;10.95;;;;;;;28.94;39.87;100086.38;6098113;23;20026;-95
2022/08/04 10:32:56;;;;;;;23.33;10.20;;;;;;;29.15;40.26;100116.31;6077820;23;20052;-91
2022/08/04 10:35:25;;;;;;;66.50;11.98;;;;;;;29.04;38.88;100081.84;6097404;23;20037;-89
2022/08/04 10:38:30;;;;;;;36.80;12.15;;;;;;;29.18;37.79;100104.19;6097837;23;20045;-95
2022/08/04 10:51:50;;;;;;;20.92;10.35;;;;;;;29.31;38.62;100110.09;6099883;23;20030;-95
2022/08/04 10:54:59;;;;;;;16.73;10.10;;;;;;;29.12;37.61;100071.28;6035296;23;20345;-94
2022/08/04 10:57:39;;;;;;;31.23;10.60;;;;;;;29.07;39.39;100050.03;6079291;23;20045;-90
2022/08/04 11:00:34;;;;;;;36.60;10.13;;;;;;;29.49;37.33;100105.00;6100950;23;20022;-95
2022/08/04 11:03:22;;;;;;;23.52;9.90;;;;;;;29.19;37.17;100046.66;6098486;23;20022;-89
2022/08/04 11:06:19;;;;;;;32.30;10.00;;;;;;;29.67;38.16;100113.25;6097281;23;20019;-90
2022/08/04 11:08:53;;;;;;;20.83;10.15;;;;;;;29.62;36.48;100079.91;6073906;23;20109;-88
2022/08/04 11:14:32;;;;;;;15.27;9.60;;;;;;;29.79;36.70;100074.41;6143296;23;20036;-89
2022/08/04 11:17:10;;;;;;;16.27;10.52;;;;;;;29.90;37.44;100094.78;6137512;23;20017;-95
2022/08/04 11:20:08;;;;;;;33.00;11.43;;;;;;;29.84;36.74;100062.69;6111104;23;20085;-89
2022/08/04 11:22:53;;;;;;;18.38;9.73;;;;;;;29.99;37.71;100078.13;6146553;23;20061;-94
2022/08/04 11:36:10;;;;;;;36.97;10.07;;;;;;;30.15;36.68;100072.63;6074621;23;20046;-91
2022/08/04 11:39:04;;;;;;;16.58;9.30;;;;;;;30.35;35.75;100086.03;6078123;23;20026;-91
2022/08/04 11:41:52;;;;;;;19.73;10.20;;;;;;;30.52;34.77;100107.47;6044386;23;20029;-92
2022/08/04 11:44:48;;;;;;;17.55;9.70;;;;;;;30.32;35.24;100079.22;6102420;23;20018;-92
2022/08/04 11:48:13;;;;;;;13.80;9.48;;;;;;;30.54;34.11;100107.06;6043419;23;20022;-92
2022/08/04 11:50:49;;;;;;;16.33;9.13;;;;;;;30.43;34.74;100090.31;6042416;23;20113;-91
2022/08/04 11:53:22;;;;;;;17.00;9.82;;;;;;;30.21;33.93;100027.06;6044234;23;20062;-91
2022/08/04 11:55:53;;;;;;;10.13;8.95;;;;;;;30.33;34.46;100043.34;6020068;23;20014;-92
2022/08/04 11:58:29;;;;;;;21.00;9.95;;;;;;;30.40;33.54;100052.50;6020959;23;20018;-94
2022/08/04 12:01:26;;;;;;;18.23;9.60;;;;;;;30.29;33.00;100036.97;6020345;23;20050;-92
2022/08/04 12:04:36;;;;;;;13.18;8.70;;;;;;;30.69;33.13;100093.47;6019075;23;20059;-95
2022/08/04 12:11:07;;;;;;;19.15;9.95;;;;;;;30.85;34.08;100094.41;5962621;23;20118;-91
2022/08/04 12:13:54;;;;;;;15.13;9.55;;;;;;;30.87;34.70;100096.81;5944059;23;20110;-94
2022/08/04 12:19:52;;;;;;;22.35;10.32;;;;;;;30.95;32.96;100086.16;6068576;23;20029;-94
2022/08/04 12:23:10;;;;;;;19.30;9.63;;;;;;;31.03;34.39;100087.63;6020757;23;20029;-94
2022/08/04 12:26:37;;;;;;;20.08;9.27;;;;;;;30.76;34.15;100037.72;6110386;23;20021;-92
2022/08/04 12:29:19;;;;;;;14.23;9.60;;;;;;;30.83;33.26;100040.41;6022072;23;20022;-96
2022/08/04 12:32:29;;;;;;;19.90;10.10;;;;;;;31.22;33.83;100081.13;6020829;23;20063;-93
2022/08/04 12:35:32;;;;;;;16.10;9.68;;;;;;;31.20;33.73;100080.81;6021043;23;20019;-90
2022/08/04 12:38:14;;;;;;;27.85;10.98;;;;;;;30.84;33.40;100036.34;6020603;23;20018;-94
2022/08/04 12:43:54;;;;;;;25.80;9.70;;;;;;;31.01;32.10;100039.25;6084229;23;20096;-91
2022/08/04 12:46:50;;;;;;;19.67;9.88;;;;;;;31.24;33.95;100072.25;6080787;23;20210;-95
2022/08/04 12:49:40;;;;;;;22.77;10.27;;;;;;;30.84;31.56;100033.53;6107188;23;20021;-95
2022/08/04 12:52:13;;;;;;;15.60;9.60;;;;;;;30.67;30.78;100009.25;6044036;23;20398;-94
2022/08/04 12:54:42;;;;;;;14.07;9.90;;;;;;;30.92;33.12;100031.34;6045568;23;20019;-95
2022/08/04 12:57:11;;;;;;;21.02;10.23;;;;;;;30.74;32.11;99999.84;6047262;23;20034;-95
2022/08/04 13:00:42;;;;;;;16.00;10.70;;;;;;;31.28;33.41;100064.47;6048644;23;20022;-91
2022/08/04 13:03:14;;;;;;;22.17;10.35;;;;;;;31.28;31.38;100056.00;6049364;23;20033;-94
2022/08/04 13:06:24;;;;;;;37.47;10.93;;;;;;;31.06;32.27;100004.81;6024880;23;20014;-94
2022/08/04 13:10:15;;;;;;;13.95;10.15;;;;;;;31.41;30.21;100059.00;6124709;23;20073;31
2022/08/04 13:36:28;;;;;;;25.37;12.93;;;;;;;31.34;33.86;100028.88;6158948;23;20037;-94
2022/08/04 13:46:09;;;;;;;18.60;12.13;;;;;;;31.34;33.49;100051.47;6188138;23;20403;-93
2022/08/04 13:48:47;;;;;;;22.23;12.43;;;;;;;31.06;33.85;100011.28;6102990;23;20392;-93
2022/08/04 15:06:39;;;;;;;20.75;12.25;;;;;;;30.96;35.17;100008.66;6157328;23;20476;-92
2022/08/04 15:09:45;;;;;;;18.40;12.52;;;;;;;30.60;35.30;99967.84;6084558;23;20029;-92
2022/08/04 15:12:11;;;;;;;21.63;12.68;;;;;;;30.92;34.54;100008.75;5992956;23;20098;-92
2022/08/04 15:15:16;;;;;;;31.25;11.88;;;;;;;30.81;34.69;99996.91;5899608;24;20051;-90
2022/08/04 15:17:52;;;;;;;24.65;12.32;;;;;;;30.59;34.00;99966.25;5906880;24;20025;-93
2022/08/04 15:20:19;;;;;;;16.92;12.88;;;;;;;30.62;35.34;99993.59;5960805;23;20020;-93
2022/08/04 15:22:57;;;;;;;20.35;12.52;;;;;;;30.56;35.85;99989.72;5993519;23;20114;-91
2022/08/04 15:26:14;;;;;;;20.48;12.73;;;;;;;30.83;36.74;100036.78;5993643;23;20023;-93
2022/08/04 15:32:59;;;;;;;30.45;13.95;;;;;;;30.63;37.84;100028.28;6014711;23;20086;-94
2022/08/04 15:39:38;;;;;;;22.08;15.15;;;;;;;30.54;37.86;100033.69;6015023;23;20015;-91
2022/08/04 15:43:11;;;;;;;20.88;13.18;;;;;;;30.44;37.30;100038.31;5992275;23;20041;-93
2022/08/04 15:46:26;;;;;;;19.13;12.93;;;;;;;30.26;37.04;100029.38;5969852;23;20023;-92
2022/08/04 15:49:40;;;;;;;37.75;14.07;;;;;;;30.07;37.26;100037.31;6044287;23;20022;-94
2022/08/04 15:55:42;;;;;;;59.25;14.75;;;;;;;29.70;39.29;100036.31;6106678;23;20020;-93
2022/08/04 15:58:51;;;;;;;28.38;14.07;;;;;;;29.51;38.63;100042.59;6084998;23;20025;-94
2022/08/04 16:06:24;;;;;;;35.45;13.65;;;;;;;29.09;40.90;100043.97;5982679;24;20413;-92
2022/08/04 16:08:51;;;;;;;34.47;15.05;;;;;;;28.90;41.45;100046.19;5941662;23;20001;-93
2022/08/04 16:11:39;;;;;;;32.28;14.88;;;;;;;28.75;41.42;100041.94;5971325;24;20079;-92
2022/08/04 16:14:34;;;;;;;46.78;15.85;;;;;;;28.64;41.98;100046.88;5973936;24;20512;-92
2022/08/04 16:17:49;;;;;;;60.58;17.10;;;;;;;28.50;41.85;100059.09;5965935;24;20201;-92
2022/08/04 16:20:28;;;;;;;36.92;16.17;;;;;;;27.79;41.39;99960.13;5854049;24;20029;-95
2022/08/04 16:23:14;;;;;;;31.38;15.77;;;;;;;27.71;42.25;99969.78;5839661;24;20026;-96
2022/08/04 16:25:58;;;;;;;33.40;15.77;;;;;;;27.64;42.97;99981.88;5860803;24;20032;-94
2022/08/04 16:30:09;;;;;;;30.80;14.98;;;;;;;27.98;44.25;100056.31;5884370;24;20024;-94
2022/08/04 16:35:33;;;;;;;32.15;15.93;;;;;;;27.37;44.68;100000.53;5852360;24;20464;-92
2022/08/04 16:38:25;;;;;;;38.00;15.35;;;;;;;27.62;44.52;100051.72;5875788;23;20023;-92
2022/08/04 16:40:56;;;;;;;30.35;15.15;;;;;;;27.32;44.86;100029.84;6003036;23;20047;-92
2022/08/04 16:43:31;;;;;;;21.95;14.25;;;;;;;27.00;44.18;99992.69;6011048;23;20056;-95
2022/08/04 16:46:06;;;;;;;26.42;14.35;;;;;;;27.28;43.75;100042.28;6010867;23;20024;-92
2022/08/04 16:49:05;;;;;;;25.80;14.35;;;;;;;27.31;43.75;100061.91;6011653;23;20019;-94
2022/08/04 16:58:10;;;;;;;37.13;15.43;;;;;;;26.84;42.76;100019.19;6107371;23;20025;-89
2022/08/04 17:00:52;;;;;;;41.40;14.85;;;;;;;26.56;42.81;99980.84;6131760;23;20423;-94
2022/08/04 17:03:57;;;;;;;25.00;13.60;;;;;;;26.99;43.55;100055.63;6084270;23;20021;-89
2022/08/04 17:06:38;;;;;;;37.75;14.00;;;;;;;26.72;43.31;100028.06;6107657;23;20081;-90
2022/08/04 17:09:25;;;;;;;31.42;13.07;;;;;;;26.83;43.59;100056.88;6083347;23;20440;-90
2022/08/04 17:12:00;;;;;;;35.17;13.85;;;;;;;26.80;41.13;100063.31;6082834;23;20408;-90
2022/08/04 17:14:30;;;;;;;38.00;13.77;;;;;;;26.43;41.00;100008.50;6155109;23;20018;-91
2022/08/04 17:17:11;;;;;;;44.05;13.90;;;;;;;26.21;41.35;99984.50;6099020;23;20017;-93
2022/08/04 17:19:38;;;;;;;40.33;14.93;;;;;;;26.52;41.46;100046.53;6075963;23;20108;-92
2022/08/04 17:22:16;;;;;;;;;;;;;;;26.54;41.24;100072.19;6051853;23;20025;-91
2022/08/04 17:24:42;;;;;;;37.70;13.90;;;;;;;26.38;41.49;100058.56;6051322;23;19917;-91
2022/08/04 17:27:10;;;;;;;33.92;14.02;;;;;;;26.40;41.22;100078.59;6101375;23;20029;-91
2022/08/04 17:29:36;;;;;;;25.73;13.05;;;;;;;26.16;41.93;100043.78;6077973;23;20029;-91
2022/08/04 17:32:03;;;;;;;36.70;14.52;;;;;;;26.12;42.04;100045.75;6078029;23;20498;-91
2022/08/04 17:34:31;;;;;;;37.33;16.05;;;;;;;25.93;43.73;100041.38;6075967;23;20017;-89
2022/08/04 17:37:04;;;;;;;35.20;14.75;;;;;;;26.07;42.30;100068.59;6100534;23;20022;-90
2022/08/04 17:42:43;;;;;;;56.42;15.20;;;;;;;25.92;45.04;100068.56;6099278;23;20014;-90
2022/08/04 17:45:34;;;;;;;36.97;14.18;;;;;;;25.86;43.67;100078.59;6124929;23;20018;-89
2022/08/04 17:48:01;;;;;;;;;;;;;;;25.80;43.06;100077.38;6076704;23;20530;-86
2022/08/04 17:50:33;;;;;;;24.77;13.18;;;;;;;25.63;42.72;100062.09;6075873;23;19913;-89
2022/08/04 17:53:04;;;;;;;28.77;13.52;;;;;;;25.70;42.67;100075.31;6077779;23;20013;-89
2022/08/04 17:55:41;;;;;;;21.38;13.90;;;;;;;25.67;44.92;100078.91;6081712;23;20018;-89
2022/08/04 17:58:17;;;;;;;39.65;15.38;;;;;;;25.52;46.95;100061.28;6082530;23;20040;-91
2022/08/04 18:00:44;;;;;;;;;;;;;;;25.59;50.03;100085.69;6156541;23;20029;-89
2022/08/04 18:03:23;;;;;;;;;;;;;;;25.52;50.23;100081.66;6084958;23;19951;-90
2022/08/04 18:05:53;;;;;;;48.58;16.95;;;;;;;25.46;50.71;100083.28;6107294;23;20270;-89
2022/08/04 18:08:32;;;;;;;57.17;17.02;;;;;;;24.89;51.63;99998.28;6113039;23;20017;-93
2022/08/04 18:11:02;;;;;;;50.47;16.98;;;;;;;25.07;50.09;100038.31;6085345;23;20068;-93
2022/08/04 18:14:10;;;;;;;50.38;17.77;;;;;;;24.78;52.04;100001.84;6108651;23;20013;-90
2022/08/04 18:17:16;;;;;;;68.78;17.55;;;;;;;25.20;52.05;100064.78;6083619;23;20018;-92
2022/08/04 18:20:04;;;;;;;79.57;19.35;;;;;;;24.73;52.67;100002.19;6082314;23;20027;-92
2022/08/04 18:23:21;;;;;;;74.10;20.40;;;;;;;25.30;53.35;100086.41;6071344;23;20057;-92
2022/08/04 18:26:53;;;;;;;75.32;21.77;;;;;;;25.30;55.12;100099.59;6049775;23;20073;-93
2022/08/04 18:29:46;;;;;;;71.43;23.35;;;;;;;25.27;55.82;100097.59;6071165;23;20050;-91
2022/08/04 18:32:42;;;;;;;96.60;24.30;;;;;;;25.19;56.75;100096.75;6045852;23;20094;-92
2022/08/04 18:35:10;;;;;;;74.45;22.52;;;;;;;25.13;57.35;100094.72;6040587;23;20019;-87
2022/08/04 18:37:37;;;;;;;60.33;22.05;;;;;;;25.10;58.08;100096.28;6019450;23;20029;-90
2022/08/04 18:40:08;;;;;;;71.13;23.52;;;;;;;25.04;58.17;100093.06;6018793;23;20022;-91
2022/08/04 18:42:35;;;;;;;62.85;23.00;;;;;;;25.04;57.84;100095.88;5996497;23;20033;-87
2022/08/04 18:45:05;;;;;;;78.70;24.02;;;;;;;24.93;58.02;100089.38;5995436;23;20014;-90
2022/08/04 18:47:32;;;;;;;49.90;23.48;;;;;;;25.02;58.24;100105.84;6019558;23;20023;-87
2022/08/04 18:50:00;;;;;;;56.85;23.42;;;;;;;24.98;54.56;100093.81;6067472;23;20051;-89
2022/08/04 18:52:30;;;;;;;49.22;23.45;;;;;;;25.03;52.51;100099.03;5996279;23;20021;-89
2022/08/04 18:54:57;;;;;;;55.08;24.70;;;;;;;25.02;55.05;100092.63;5994819;23;20462;-88
2022/08/04 18:57:28;;;;;;;59.58;25.05;;;;;;;25.05;54.79;100094.66;6042721;23;20022;-87
2022/08/04 19:00:00;;;;;;;63.78;25.98;;;;;;;25.11;53.83;100099.88;6048047;23;20018;-90
2022/08/04 19:02:36;;;;;;;58.70;25.58;;;;;;;25.00;53.07;100092.25;5997134;23;20029;-92
2022/08/04 19:05:05;;;;;;;44.55;23.40;;;;;;;25.11;51.13;100097.88;6046997;23;20583;-90
2022/08/04 19:07:51;;;;;;;69.90;27.20;;;;;;;25.13;55.72;100105.91;6047804;23;20071;-92
2022/08/04 19:10:39;;;;;;;68.10;28.75;;;;;;;25.12;56.30;100116.31;6030077;23;20030;-88
2022/08/04 19:13:06;;;;;;;67.00;29.30;;;;;;;24.90;52.17;100075.38;6105781;23;20022;-90
2022/08/04 19:15:35;;;;;;;60.60;29.23;;;;;;;25.15;55.82;100114.72;6076973;23;20018;-90
2022/08/04 19:18:04;;;;;;;73.75;33.15;;;;;;;25.15;56.10;100109.13;6024846;23;20010;-89
2022/08/04 19:20:31;;;;;;;66.00;29.33;;;;;;;24.98;54.22;100091.81;6001206;23;20029;-92
2022/08/04 19:23:00;;;;;;;67.78;33.78;;;;;;;24.81;56.49;100064.56;6045861;23;20077;-89
2022/08/04 19:25:26;;;;;;;72.78;25.67;;;;;;;24.96;52.83;100087.81;6042426;23;20442;-90
2022/08/04 19:27:53;;;;;;;52.25;28.02;;;;;;;24.96;55.71;100091.41;6019437;23;20054;-91
2022/08/04 19:30:23;;;;;;;59.92;29.65;;;;;;;25.02;56.56;100095.44;6019152;23;20138;-91
2022/08/04 19:32:50;;;;;;;66.25;31.75;;;;;;;24.98;57.98;100097.41;6019515;23;20019;-93
2022/08/04 19:35:18;;;;;;;63.83;27.85;;;;;;;25.16;56.79;100119.13;6044494;23;20019;-91
2022/08/04 19:37:54;;;;;;;;;;;;;;;25.14;56.03;100119.53;6045545;23;20414;-91
2022/08/04 19:40:21;;;;;;;74.07;27.65;;;;;;;25.03;55.21;100113.84;5997676;23;19918;-91
2022/08/04 19:42:51;;;;;;;77.03;29.10;;;;;;;24.99;56.60;100104.63;6044840;23;20153;-92
2022/08/04 19:45:17;;;;;;;49.88;20.85;;;;;;;25.12;49.86;100113.50;6089489;23;20022;-93
2022/08/04 19:48:08;;;;;;;51.15;23.38;;;;;;;24.91;51.87;100085.41;6107533;23;20041;-92
2022/08/04 19:50:39;;;;;;;73.82;23.23;;;;;;;24.68;50.45;100047.31;6054057;23;20081;-92
2022/08/04 19:53:09;;;;;;;61.13;21.77;;;;;;;24.80;48.40;100062.94;6077583;23;20022;-91
2022/08/04 19:55:41;;;;;;;67.45;20.30;;;;;;;24.90;50.27;100084.59;6100593;23;20025;-90
2022/08/04 19:58:14;;;;;;;75.53;21.13;;;;;;;24.89;47.53;100085.78;6100503;23;20025;-92
2022/08/04 20:00:58;;;;;;;59.90;21.85;;;;;;;25.06;49.84;100099.06;6078228;23;20029;-89
2022/08/04 20:03:25;;;;;;;58.75;21.05;;;;;;;24.72;47.76;100052.94;6101526;23;20464;-89
2022/08/04 20:05:52;;;;;;;69.63;21.42;;;;;;;25.16;47.95;100125.50;6079498;23;20018;-91
2022/08/04 20:08:34;;;;;;;60.30;22.10;;;;;;;25.13;48.50;100117.09;6098627;23;20062;-87
2022/08/04 20:11:05;;;;;;;67.85;22.13;;;;;;;25.06;47.65;100112.25;6125646;23;20045;-91
2022/08/04 20:13:37;;;;;;;73.18;22.75;;;;;;;24.65;49.10;100047.31;6099582;23;20025;-91
2022/08/04 20:16:28;;;;;;;63.00;21.38;;;;;;;25.10;47.91;100129.88;6051679;23;20091;-90
2022/08/04 20:19:01;;;;;;;55.42;21.17;;;;;;;25.06;49.06;100121.44;6126281;23;20071;-90
2022/08/04 20:21:53;;;;;;;50.17;21.00;;;;;;;25.05;49.04;100117.03;6101001;23;20096;-96
2022/08/04 20:24:32;;;;;;;44.55;21.25;;;;;;;24.52;47.32;100042.03;6103601;23;20022;-93
2022/08/04 20:26:59;;;;;;;63.25;21.55;;;;;;;24.89;47.45;100093.38;6079715;23;20062;-94
2022/08/04 20:29:28;;;;;;;68.07;21.83;;;;;;;25.02;47.76;100120.63;6077846;23;20029;-92
